EGNV - Tees-Side
Distance from station: E 5mi, 14km
Updated: 07/21/2018 9:50pm
Mostly Cloudy
Mostly Cloudy
 Wind from SSE
Wind: SSE 5 mph , 7 km/h
Temperature: 57°F , 14°C
Dew Point: 54°F , 12°C
Humidity: 88%
Barometer: 29.91 inHg , 1013 hPa
Clouds: Mostly Cloudy
Visibility: 6 miles , 10 km
Cloud details: Partly Cloudy 3200 ft
Mostly Cloudy 4200 ft
2018/07/22 04:50 EGNV 220450Z 15004KT 9999 SCT032 BKN042 14/12 Q1013